Wausau, WI

6:55 AM CST on March 03, 2015 (GMT -0600)
Thomas Jefferson Elementary, Across the Street | Change Station
CLOSE
Current Station
Personal Weather Station
Location: Wausau, WI
Elevation: 1276 ft
Nearby Weather Stations
Active Advisory: Winter Weather Advisory

Elev 1276 ft 44.98 °N, 89.64 °W | Updated 9 minutes ago

Overcast
Overcast
19.9 °F
Feels Like 20 °F
N
2.7
Wind Variable Wind from SSE

Today
High -- | Low -- °F
--% Chance of Precip.
Yesterday
High -- | Low -- °F
Precip. -- in
6:33 AM 5:48 PM
Waxing Gibbous, 96% visible
Pressure 29.89 in
Visibility 10.0 miles
Clouds Overcast 6500 ft
Windchill 20 °F
Dew Point 15 °F
Humidity 81%
Rainfall 0.00 in
Snow Depth Not available.
UV 0 out of 12
Pollen .40 out of 12
Air Quality Not available.
Flu Activity Not available.
METAR KAUW 031154Z AUTO 13007KT 10SM OVC065 M07/M09 A2982 RMK AO2 SLP122 60000 T10671094 11050 21067 56050

More Conditions Fewer Conditions

Pressure 29.89 in
Visibility 10.0 miles
Clouds Overcast 6500 ft
Windchill 20 °F
Dew Point 15 °F
Humidity 81%
Rainfall 0.00 in
Snow Depth Not available.
UV 0 out of 12
Pollen .40 out of 12
Air Quality Not available.
Flu Activity Not available.
METAR KAUW 031154Z AUTO 13007KT 10SM OVC065 M07/M09 A2982 RMK AO2 SLP122 60000 T10671094 11050 21067 56050

More Conditions Fewer Conditions

10-Day Weather Forecast

Almanac

Astronomy

Mar. 03, 2015 Rise Set
Actual Time
Civil Twilight
Nautical Twilight
Astronomical Twilight
Moon
Length of Visible Light
Length of Day
Tomorrow will be .
, % of the Moon is Illuminated

Today's Extremes

State Highs State Lows

Community

WunderPhotos

Upload Photos

1,802,096 photos uploaded!

WunderBlogs® & News

Nearby

Air Quality

  Air Quality AQ Index Pollutant
Not available.

Snow Depth

Station Depth Elevation

Earthquake Activity

City Distance Mag. Time & Date
Minimum magnitude displayed is 2.5.

Coastal Water Temperatures

Place Temperature

Nearby Weather Stations

Winter Weather Advisory
Statement as of 6:42 AM CST on March 03, 2015

... Winter Weather Advisory remains in effect until 6 PM CST this
evening...

* snow will develop this morning and will become moderate at
times. The snow may be mixed with freezing drizzle at times and
will then taper off to flurries later this afternoon.

* A total snow accumulation of 2 to 4 inches is expected.

* Travel conditions will become hazardous due to snow covered
roads and will impact the morning commute.

Precautionary/preparedness actions...

A Winter Weather Advisory for snow means that periods of snow
will cause some travel difficulties. Be prepared for snow covered
roads and limited visibilities... and use caution while driving.
The latest Wisconsin Road conditions can be obtained by calling
511.